sensor_id;sensor_type;location;lat;lon;timestamp;temperature;humidity
39189;DHT22;24915;50.858;4.376;2022-08-11T00:00:01;23.90;68.80
39189;DHT22;24915;50.858;4.376;2022-08-11T00:05:08;23.80;68.70
39189;DHT22;24915;50.858;4.376;2022-08-11T00:07:43;23.80;69.10
39189;DHT22;24915;50.858;4.376;2022-08-11T00:10:15;23.70;69.20
39189;DHT22;24915;50.858;4.376;2022-08-11T00:12:42;23.70;69.30
39189;DHT22;24915;50.858;4.376;2022-08-11T00:15:10;23.70;69.60
39189;DHT22;24915;50.858;4.376;2022-08-11T00:17:36;23.70;69.70
39189;DHT22;24915;50.858;4.376;2022-08-11T00:20:08;23.70;69.70
39189;DHT22;24915;50.858;4.376;2022-08-11T00:22:37;23.60;69.90
39189;DHT22;24915;50.858;4.376;2022-08-11T00:25:09;23.60;70.00
39189;DHT22;24915;50.858;4.376;2022-08-11T00:27:37;23.60;70.00
39189;DHT22;24915;50.858;4.376;2022-08-11T00:30:06;23.50;70.10
39189;DHT22;24915;50.858;4.376;2022-08-11T00:32:40;23.50;70.20
39189;DHT22;24915;50.858;4.376;2022-08-11T00:35:10;23.50;70.30
39189;DHT22;24915;50.858;4.376;2022-08-11T00:37:37;23.50;70.60
39189;DHT22;24915;50.858;4.376;2022-08-11T00:40:07;23.40;70.80
39189;DHT22;24915;50.858;4.376;2022-08-11T00:42:45;23.40;70.60
39189;DHT22;24915;50.858;4.376;2022-08-11T00:45:21;23.40;70.80
39189;DHT22;24915;50.858;4.376;2022-08-11T00:51:41;23.30;71.10
39189;DHT22;24915;50.858;4.376;2022-08-11T00:53:48;23.30;71.30
39189;DHT22;24915;50.858;4.376;2022-08-11T00:57:03;23.30;71.10
39189;DHT22;24915;50.858;4.376;2022-08-11T01:13:59;23.00;72.60
39189;DHT22;24915;50.858;4.376;2022-08-11T01:19:33;22.90;72.50
39189;DHT22;24915;50.858;4.376;2022-08-11T01:22:34;22.80;72.60
39189;DHT22;24915;50.858;4.376;2022-08-11T01:28:06;22.80;73.10
39189;DHT22;24915;50.858;4.376;2022-08-11T01:48:04;22.60;73.80
39189;DHT22;24915;50.858;4.376;2022-08-11T01:56:25;22.50;73.90
39189;DHT22;24915;50.858;4.376;2022-08-11T02:01:38;22.50;74.20
39189;DHT22;24915;50.858;4.376;2022-08-11T02:04:33;22.40;74.30
39189;DHT22;24915;50.858;4.376;2022-08-11T02:07:09;22.40;74.30
39189;DHT22;24915;50.858;4.376;2022-08-11T02:13:15;22.40;74.70
39189;DHT22;24915;50.858;4.376;2022-08-11T02:15:50;22.30;74.60
39189;DHT22;24915;50.858;4.376;2022-08-11T02:18:54;22.30;74.70
39189;DHT22;24915;50.858;4.376;2022-08-11T02:21:58;22.30;75.10
39189;DHT22;24915;50.858;4.376;2022-08-11T02:24:58;22.30;75.00
39189;DHT22;24915;50.858;4.376;2022-08-11T02:27:42;22.20;75.60
39189;DHT22;24915;50.858;4.376;2022-08-11T02:30:14;22.20;75.60
39189;DHT22;24915;50.858;4.376;2022-08-11T02:35:51;22.10;75.60
39189;DHT22;24915;50.858;4.376;2022-08-11T02:38:33;22.10;76.10
39189;DHT22;24915;50.858;4.376;2022-08-11T02:47:30;22.00;75.90
39189;DHT22;24915;50.858;4.376;2022-08-11T02:50:20;22.00;75.90
39189;DHT22;24915;50.858;4.376;2022-08-11T02:53:19;22.00;76.10
39189;DHT22;24915;50.858;4.376;2022-08-11T02:56:08;22.00;76.10
39189;DHT22;24915;50.858;4.376;2022-08-11T03:01:50;21.90;76.50
39189;DHT22;24915;50.858;4.376;2022-08-11T03:04:24;21.80;76.80
39189;DHT22;24915;50.858;4.376;2022-08-11T03:07:05;21.80;76.60
39189;DHT22;24915;50.858;4.376;2022-08-11T03:12:10;21.70;77.10
39189;DHT22;24915;50.858;4.376;2022-08-11T03:15:08;21.60;77.20
39189;DHT22;24915;50.858;4.376;2022-08-11T03:20:57;21.60;78.10
39189;DHT22;24915;50.858;4.376;2022-08-11T03:23:33;21.60;77.60
39189;DHT22;24915;50.858;4.376;2022-08-11T03:26:01;21.50;77.90
39189;DHT22;24915;50.858;4.376;2022-08-11T03:34:32;21.50;78.00
39189;DHT22;24915;50.858;4.376;2022-08-11T03:37:35;21.40;78.10
39189;DHT22;24915;50.858;4.376;2022-08-11T03:43:25;21.40;78.40
39189;DHT22;24915;50.858;4.376;2022-08-11T03:46:11;21.40;78.60
39189;DHT22;24915;50.858;4.376;2022-08-11T03:49:29;21.30;78.50
39189;DHT22;24915;50.858;4.376;2022-08-11T04:11:57;21.10;79.80
39189;DHT22;24915;50.858;4.376;2022-08-11T04:14:50;21.10;79.80
39189;DHT22;24915;50.858;4.376;2022-08-11T04:18:00;21.10;80.00
39189;DHT22;24915;50.858;4.376;2022-08-11T04:26:20;21.00;80.00
39189;DHT22;24915;50.858;4.376;2022-08-11T04:34:31;21.00;80.20
39189;DHT22;24915;50.858;4.376;2022-08-11T05:08:05;21.00;80.90
39189;DHT22;24915;50.858;4.376;2022-08-11T05:13:45;21.10;80.90
39189;DHT22;24915;50.858;4.376;2022-08-11T05:16:52;21.20;81.50
39189;DHT22;24915;50.858;4.376;2022-08-11T05:19:38;21.30;80.70
39189;DHT22;24915;50.858;4.376;2022-08-11T05:22:27;21.30;80.40
39189;DHT22;24915;50.858;4.376;2022-08-11T05:25:22;21.40;80.40
39189;DHT22;24915;50.858;4.376;2022-08-11T05:28:11;21.40;80.20
39189;DHT22;24915;50.858;4.376;2022-08-11T05:31:08;21.50;80.00
39189;DHT22;24915;50.858;4.376;2022-08-11T05:33:58;21.50;79.80
39189;DHT22;24915;50.858;4.376;2022-08-11T05:36:47;21.60;79.60
39189;DHT22;24915;50.858;4.376;2022-08-11T05:39:27;21.70;79.50
39189;DHT22;24915;50.858;4.376;2022-08-11T05:42:11;21.80;79.30
39189;DHT22;24915;50.858;4.376;2022-08-11T05:45:03;21.90;78.80
39189;DHT22;24915;50.858;4.376;2022-08-11T05:47:48;22.10;78.10
39189;DHT22;24915;50.858;4.376;2022-08-11T05:50:34;22.20;78.10
39189;DHT22;24915;50.858;4.376;2022-08-11T05:53:18;22.30;77.70
39189;DHT22;24915;50.858;4.376;2022-08-11T05:56:07;22.40;77.50
39189;DHT22;24915;50.858;4.376;2022-08-11T05:58:52;22.50;77.10
39189;DHT22;24915;50.858;4.376;2022-08-11T06:01:26;22.60;77.00
39189;DHT22;24915;50.858;4.376;2022-08-11T06:03:55;22.70;76.60
39189;DHT22;24915;50.858;4.376;2022-08-11T06:09:22;23.00;75.70
39189;DHT22;24915;50.858;4.376;2022-08-11T06:11:49;23.10;75.40
39189;DHT22;24915;50.858;4.376;2022-08-11T06:14:15;23.20;75.40
39189;DHT22;24915;50.858;4.376;2022-08-11T06:16:41;23.30;74.90
39189;DHT22;24915;50.858;4.376;2022-08-11T06:19:08;23.40;74.80
39189;DHT22;24915;50.858;4.376;2022-08-11T06:21:34;23.50;74.60
39189;DHT22;24915;50.858;4.376;2022-08-11T06:24:04;23.60;74.20
39189;DHT22;24915;50.858;4.376;2022-08-11T06:26:36;23.70;73.50
39189;DHT22;24915;50.858;4.376;2022-08-11T06:29:03;23.80;73.50
39189;DHT22;24915;50.858;4.376;2022-08-11T06:31:31;23.90;73.20
39189;DHT22;24915;50.858;4.376;2022-08-11T06:34:14;24.00;72.90
39189;DHT22;24915;50.858;4.376;2022-08-11T06:40:02;24.30;72.40
39189;DHT22;24915;50.858;4.376;2022-08-11T06:48:01;24.80;71.10
39189;DHT22;24915;50.858;4.376;2022-08-11T06:50:28;25.00;70.80
39189;DHT22;24915;50.858;4.376;2022-08-11T06:53:16;25.20;70.30
39189;DHT22;24915;50.858;4.376;2022-08-11T06:55:44;25.40;70.00
39189;DHT22;24915;50.858;4.376;2022-08-11T06:58:32;25.50;69.40
39189;DHT22;24915;50.858;4.376;2022-08-11T07:01:35;25.70;68.30
39189;DHT22;24915;50.858;4.376;2022-08-11T07:04:07;25.90;67.70
39189;DHT22;24915;50.858;4.376;2022-08-11T07:15:03;26.40;65.10
39189;DHT22;24915;50.858;4.376;2022-08-11T07:17:52;26.60;64.80
39189;DHT22;24915;50.858;4.376;2022-08-11T07:20:39;26.80;64.50
39189;DHT22;24915;50.858;4.376;2022-08-11T07:23:24;27.00;64.30
39189;DHT22;24915;50.858;4.376;2022-08-11T07:26:10;27.20;63.80
39189;DHT22;24915;50.858;4.376;2022-08-11T07:28:55;27.30;62.10
39189;DHT22;24915;50.858;4.376;2022-08-11T07:31:33;27.40;61.80
39189;DHT22;24915;50.858;4.376;2022-08-11T07:36:39;27.70;62.10
39189;DHT22;24915;50.858;4.376;2022-08-11T07:39:09;27.80;61.90
39189;DHT22;24915;50.858;4.376;2022-08-11T07:41:40;28.00;59.90
39189;DHT22;24915;50.858;4.376;2022-08-11T07:44:06;28.00;59.20
39189;DHT22;24915;50.858;4.376;2022-08-11T07:46:46;28.00;59.60
39189;DHT22;24915;50.858;4.376;2022-08-11T07:49:34;28.10;58.70
39189;DHT22;24915;50.858;4.376;2022-08-11T07:52:19;28.20;58.40
39189;DHT22;24915;50.858;4.376;2022-08-11T07:54:57;28.30;58.90
39189;DHT22;24915;50.858;4.376;2022-08-11T07:57:24;28.30;59.30
39189;DHT22;24915;50.858;4.376;2022-08-11T08:00:10;28.30;59.00
39189;DHT22;24915;50.858;4.376;2022-08-11T08:02:54;28.60;58.90
39189;DHT22;24915;50.858;4.376;2022-08-11T08:05:38;28.80;58.40
39189;DHT22;24915;50.858;4.376;2022-08-11T08:08:23;28.90;57.60
39189;DHT22;24915;50.858;4.376;2022-08-11T08:11:10;29.00;57.30
39189;DHT22;24915;50.858;4.376;2022-08-11T08:13:54;29.10;57.60
39189;DHT22;24915;50.858;4.376;2022-08-11T08:16:41;29.40;57.80
39189;DHT22;24915;50.858;4.376;2022-08-11T08:19:26;29.50;57.50
39189;DHT22;24915;50.858;4.376;2022-08-11T08:21:52;29.70;56.90
39189;DHT22;24915;50.858;4.376;2022-08-11T08:24:20;29.80;56.00
39189;DHT22;24915;50.858;4.376;2022-08-11T08:26:47;29.90;56.50
39189;DHT22;24915;50.858;4.376;2022-08-11T08:29:36;30.10;55.80
39189;DHT22;24915;50.858;4.376;2022-08-11T08:32:21;30.40;54.90
39189;DHT22;24915;50.858;4.376;2022-08-11T08:34:51;30.50;53.70
39189;DHT22;24915;50.858;4.376;2022-08-11T08:37:18;30.60;54.30
39189;DHT22;24915;50.858;4.376;2022-08-11T08:39:46;30.70;52.90
39189;DHT22;24915;50.858;4.376;2022-08-11T08:42:16;30.70;52.50
39189;DHT22;24915;50.858;4.376;2022-08-11T08:44:46;30.80;52.70
39189;DHT22;24915;50.858;4.376;2022-08-11T08:47:16;31.00;52.40
39189;DHT22;24915;50.858;4.376;2022-08-11T08:49:55;30.90;52.70
39189;DHT22;24915;50.858;4.376;2022-08-11T08:52:24;30.80;53.30
39189;DHT22;24915;50.858;4.376;2022-08-11T08:54:56;31.00;53.30
39189;DHT22;24915;50.858;4.376;2022-08-11T08:57:23;31.20;52.60
39189;DHT22;24915;50.858;4.376;2022-08-11T08:59:52;31.30;52.20
39189;DHT22;24915;50.858;4.376;2022-08-11T09:02:19;31.40;52.50
39189;DHT22;24915;50.858;4.376;2022-08-11T09:04:48;31.60;51.70
39189;DHT22;24915;50.858;4.376;2022-08-11T09:07:16;31.70;51.30
39189;DHT22;24915;50.858;4.376;2022-08-11T09:09:53;31.90;51.30
39189;DHT22;24915;50.858;4.376;2022-08-11T09:12:26;32.20;50.80
39189;DHT22;24915;50.858;4.376;2022-08-11T09:14:52;32.30;50.70
39189;DHT22;24915;50.858;4.376;2022-08-11T09:22:35;32.60;50.60
39189;DHT22;24915;50.858;4.376;2022-08-11T09:25:21;32.80;50.40
39189;DHT22;24915;50.858;4.376;2022-08-11T09:28:12;32.80;50.20
39189;DHT22;24915;50.858;4.376;2022-08-11T09:30:44;33.00;49.60
39189;DHT22;24915;50.858;4.376;2022-08-11T09:33:14;33.00;49.60
39189;DHT22;24915;50.858;4.376;2022-08-11T09:35:41;33.10;50.00
39189;DHT22;24915;50.858;4.376;2022-08-11T09:38:13;33.00;49.00
39189;DHT22;24915;50.858;4.376;2022-08-11T09:40:58;33.10;49.50
39189;DHT22;24915;50.858;4.376;2022-08-11T09:43:25;33.20;49.10
39189;DHT22;24915;50.858;4.376;2022-08-11T09:46:11;33.30;48.90
39189;DHT22;24915;50.858;4.376;2022-08-11T09:48:41;33.50;48.60
39189;DHT22;24915;50.858;4.376;2022-08-11T09:51:07;33.60;48.30
39189;DHT22;24915;50.858;4.376;2022-08-11T09:53:39;33.80;48.10
39189;DHT22;24915;50.858;4.376;2022-08-11T09:56:11;33.90;47.80
39189;DHT22;24915;50.858;4.376;2022-08-11T09:58:58;34.00;47.40
39189;DHT22;24915;50.858;4.376;2022-08-11T10:01:28;34.20;47.00
39189;DHT22;24915;50.858;4.376;2022-08-11T10:04:00;34.30;46.40
39189;DHT22;24915;50.858;4.376;2022-08-11T10:06:28;34.30;46.70
39189;DHT22;24915;50.858;4.376;2022-08-11T10:09:18;34.30;46.40
39189;DHT22;24915;50.858;4.376;2022-08-11T10:11:45;34.30;46.30
39189;DHT22;24915;50.858;4.376;2022-08-11T10:14:12;34.30;46.40
39189;DHT22;24915;50.858;4.376;2022-08-11T10:16:56;34.30;46.10
39189;DHT22;24915;50.858;4.376;2022-08-11T10:19:23;34.20;46.40
39189;DHT22;24915;50.858;4.376;2022-08-11T10:21:53;34.40;47.20
39189;DHT22;24915;50.858;4.376;2022-08-11T10:24:38;34.60;46.80
39189;DHT22;24915;50.858;4.376;2022-08-11T10:27:26;34.90;46.90
39189;DHT22;24915;50.858;4.376;2022-08-11T10:29:52;35.10;45.60
39189;DHT22;24915;50.858;4.376;2022-08-11T10:32:38;35.10;45.10
39189;DHT22;24915;50.858;4.376;2022-08-11T10:35:22;35.20;45.60
39189;DHT22;24915;50.858;4.376;2022-08-11T10:37:52;35.40;44.80
39189;DHT22;24915;50.858;4.376;2022-08-11T10:40:20;35.40;44.80
39189;DHT22;24915;50.858;4.376;2022-08-11T10:42:58;35.50;44.90
39189;DHT22;24915;50.858;4.376;2022-08-11T10:45:29;35.50;44.80
39189;DHT22;24915;50.858;4.376;2022-08-11T10:48:14;35.60;45.10
39189;DHT22;24915;50.858;4.376;2022-08-11T10:50:44;35.70;44.50
39189;DHT22;24915;50.858;4.376;2022-08-11T10:53:29;35.80;45.10
39189;DHT22;24915;50.858;4.376;2022-08-11T10:56:14;36.10;44.90
39189;DHT22;24915;50.858;4.376;2022-08-11T10:58:58;36.30;45.10
39189;DHT22;24915;50.858;4.376;2022-08-11T11:01:35;36.60;44.90
39189;DHT22;24915;50.858;4.376;2022-08-11T11:04:08;36.80;44.60
39189;DHT22;24915;50.858;4.376;2022-08-11T11:07:06;37.10;44.00
39189;DHT22;24915;50.858;4.376;2022-08-11T11:09:47;37.30;43.10
39189;DHT22;24915;50.858;4.376;2022-08-11T11:12:19;37.20;42.90
39189;DHT22;24915;50.858;4.376;2022-08-11T11:15:06;37.40;43.50
39189;DHT22;24915;50.858;4.376;2022-08-11T11:34:50;38.30;41.80
39189;DHT22;24915;50.858;4.376;2022-08-11T11:37:24;38.40;41.50
39189;DHT22;24915;50.858;4.376;2022-08-11T11:39:52;38.30;40.30
39189;DHT22;24915;50.858;4.376;2022-08-11T11:42:19;38.00;41.10
39189;DHT22;24915;50.858;4.376;2022-08-11T11:44:46;38.10;41.90
39189;DHT22;24915;50.858;4.376;2022-08-11T11:47:13;38.40;39.50
39189;DHT22;24915;50.858;4.376;2022-08-11T11:49:41;38.30;39.20
39189;DHT22;24915;50.858;4.376;2022-08-11T11:52:12;38.20;39.50
39189;DHT22;24915;50.858;4.376;2022-08-11T11:54:39;38.30;39.00
39189;DHT22;24915;50.858;4.376;2022-08-11T11:57:06;38.30;40.20
39189;DHT22;24915;50.858;4.376;2022-08-11T11:59:51;38.50;39.40
39189;DHT22;24915;50.858;4.376;2022-08-11T12:02:39;38.80;38.40
39189;DHT22;24915;50.858;4.376;2022-08-11T12:05:06;38.30;37.90
39189;DHT22;24915;50.858;4.376;2022-08-11T12:07:33;37.80;38.40
39189;DHT22;24915;50.858;4.376;2022-08-11T12:10:32;37.70;39.50
39189;DHT22;24915;50.858;4.376;2022-08-11T12:13:01;38.10;38.90
39189;DHT22;24915;50.858;4.376;2022-08-11T12:15:46;38.10;39.20
39189;DHT22;24915;50.858;4.376;2022-08-11T12:18:14;38.40;38.70
39189;DHT22;24915;50.858;4.376;2022-08-11T12:20:41;38.60;37.70
39189;DHT22;24915;50.858;4.376;2022-08-11T12:23:08;38.50;37.60
39189;DHT22;24915;50.858;4.376;2022-08-11T12:25:53;38.40;37.90
39189;DHT22;24915;50.858;4.376;2022-08-11T12:28:37;38.50;38.90
39189;DHT22;24915;50.858;4.376;2022-08-11T12:31:05;38.80;37.60
39189;DHT22;24915;50.858;4.376;2022-08-11T12:33:37;38.80;38.20
39189;DHT22;24915;50.858;4.376;2022-08-11T12:36:05;38.80;38.30
39189;DHT22;24915;50.858;4.376;2022-08-11T12:38:33;39.00;38.10
39189;DHT22;24915;50.858;4.376;2022-08-11T12:41:00;39.40;37.90
39189;DHT22;24915;50.858;4.376;2022-08-11T12:43:46;39.60;37.10
39189;DHT22;24915;50.858;4.376;2022-08-11T12:46:32;39.80;36.90
39189;DHT22;24915;50.858;4.376;2022-08-11T12:49:04;39.50;35.80
39189;DHT22;24915;50.858;4.376;2022-08-11T12:51:53;39.10;37.10
39189;DHT22;24915;50.858;4.376;2022-08-11T12:54:43;39.10;36.40
39189;DHT22;24915;50.858;4.376;2022-08-11T12:57:16;38.50;36.90
39189;DHT22;24915;50.858;4.376;2022-08-11T13:00:04;37.80;38.00
39189;DHT22;24915;50.858;4.376;2022-08-11T13:02:49;37.90;37.50
39189;DHT22;24915;50.858;4.376;2022-08-11T13:05:34;38.20;36.70
39189;DHT22;24915;50.858;4.376;2022-08-11T13:08:01;38.00;36.30
39189;DHT22;24915;50.858;4.376;2022-08-11T13:10:28;37.80;37.10
39189;DHT22;24915;50.858;4.376;2022-08-11T13:13:16;38.20;37.50
39189;DHT22;24915;50.858;4.376;2022-08-11T13:15:44;38.50;36.80
39189;DHT22;24915;50.858;4.376;2022-08-11T13:18:17;38.70;36.30
39189;DHT22;24915;50.858;4.376;2022-08-11T13:20:51;38.60;36.50
39189;DHT22;24915;50.858;4.376;2022-08-11T13:23:17;38.90;36.30
39189;DHT22;24915;50.858;4.376;2022-08-11T13:25:44;38.80;35.90
39189;DHT22;24915;50.858;4.376;2022-08-11T13:28:10;39.00;37.30
39189;DHT22;24915;50.858;4.376;2022-08-11T13:30:37;38.90;35.70
39189;DHT22;24915;50.858;4.376;2022-08-11T13:33:22;38.40;36.50
39189;DHT22;24915;50.858;4.376;2022-08-11T13:35:51;38.20;36.50
39189;DHT22;24915;50.858;4.376;2022-08-11T13:38:19;38.10;37.40
39189;DHT22;24915;50.858;4.376;2022-08-11T13:40:47;38.30;36.60
39189;DHT22;24915;50.858;4.376;2022-08-11T13:43:14;38.60;37.60
39189;DHT22;24915;50.858;4.376;2022-08-11T13:45:41;38.90;37.10
39189;DHT22;24915;50.858;4.376;2022-08-11T13:48:09;39.40;37.50
39189;DHT22;24915;50.858;4.376;2022-08-11T13:50:36;39.90;36.80
39189;DHT22;24915;50.858;4.376;2022-08-11T13:53:23;40.20;35.50
39189;DHT22;24915;50.858;4.376;2022-08-11T13:55:49;40.10;35.30
39189;DHT22;24915;50.858;4.376;2022-08-11T13:58:15;39.50;35.40
39189;DHT22;24915;50.858;4.376;2022-08-11T14:00:47;38.80;36.00
39189;DHT22;24915;50.858;4.376;2022-08-11T14:03:13;38.00;36.80
39189;DHT22;24915;50.858;4.376;2022-08-11T14:05:45;38.00;38.00
39189;DHT22;24915;50.858;4.376;2022-08-11T14:08:15;38.40;37.80
39189;DHT22;24915;50.858;4.376;2022-08-11T14:10:43;38.90;37.80
39189;DHT22;24915;50.858;4.376;2022-08-11T14:13:12;39.30;35.90
39189;DHT22;24915;50.858;4.376;2022-08-11T14:16:02;39.20;36.00
39189;DHT22;24915;50.858;4.376;2022-08-11T14:18:30;39.10;36.00
39189;DHT22;24915;50.858;4.376;2022-08-11T14:20:59;38.90;36.70
39189;DHT22;24915;50.858;4.376;2022-08-11T14:23:49;38.70;36.60
39189;DHT22;24915;50.858;4.376;2022-08-11T14:26:20;38.90;37.00
39189;DHT22;24915;50.858;4.376;2022-08-11T14:29:15;38.90;37.60
39189;DHT22;24915;50.858;4.376;2022-08-11T14:34:13;39.10;36.80
39189;DHT22;24915;50.858;4.376;2022-08-11T14:36:44;39.40;36.50
39189;DHT22;24915;50.858;4.376;2022-08-11T14:39:16;39.70;36.30
39189;DHT22;24915;50.858;4.376;2022-08-11T14:41:44;39.90;36.30
39189;DHT22;24915;50.858;4.376;2022-08-11T14:44:31;39.90;36.00
39189;DHT22;24915;50.858;4.376;2022-08-11T14:47:17;39.90;35.70
39189;DHT22;24915;50.858;4.376;2022-08-11T14:49:43;39.70;34.80
39189;DHT22;24915;50.858;4.376;2022-08-11T14:52:13;39.20;35.20
39189;DHT22;24915;50.858;4.376;2022-08-11T14:54:44;39.00;35.80
39189;DHT22;24915;50.858;4.376;2022-08-11T14:57:30;38.80;36.20
39189;DHT22;24915;50.858;4.376;2022-08-11T14:59:59;38.40;36.70
39189;DHT22;24915;50.858;4.376;2022-08-11T15:02:25;38.40;37.20
39189;DHT22;24915;50.858;4.376;2022-08-11T15:05:10;38.20;37.00
39189;DHT22;24915;50.858;4.376;2022-08-11T15:07:37;38.00;37.40
39189;DHT22;24915;50.858;4.376;2022-08-11T15:10:06;38.00;37.20
39189;DHT22;24915;50.858;4.376;2022-08-11T15:12:33;37.80;37.10
39189;DHT22;24915;50.858;4.376;2022-08-11T15:15:03;37.70;37.90
39189;DHT22;24915;50.858;4.376;2022-08-11T15:17:53;37.70;37.00
39189;DHT22;24915;50.858;4.376;2022-08-11T15:20:22;37.50;38.10
39189;DHT22;24915;50.858;4.376;2022-08-11T15:23:07;37.40;39.10
39189;DHT22;24915;50.858;4.376;2022-08-11T15:28:32;37.30;39.90
39189;DHT22;24915;50.858;4.376;2022-08-11T15:31:18;37.10;39.20
39189;DHT22;24915;50.858;4.376;2022-08-11T15:34:05;36.90;39.20
39189;DHT22;24915;50.858;4.376;2022-08-11T15:36:56;36.70;39.70
39189;DHT22;24915;50.858;4.376;2022-08-11T15:39:48;36.30;38.70
39189;DHT22;24915;50.858;4.376;2022-08-11T15:42:39;35.90;41.10
39189;DHT22;24915;50.858;4.376;2022-08-11T15:45:26;35.80;40.70
39189;DHT22;24915;50.858;4.376;2022-08-11T15:51:20;35.50;40.60
39189;DHT22;24915;50.858;4.376;2022-08-11T15:53:56;35.20;40.40
39189;DHT22;24915;50.858;4.376;2022-08-11T15:56:24;34.90;41.80
39189;DHT22;24915;50.858;4.376;2022-08-11T15:58:52;34.90;41.40
39189;DHT22;24915;50.858;4.376;2022-08-11T16:01:38;34.70;39.80
39189;DHT22;24915;50.858;4.376;2022-08-11T16:04:26;34.50;39.70
39189;DHT22;24915;50.858;4.376;2022-08-11T16:07:05;34.20;39.70
39189;DHT22;24915;50.858;4.376;2022-08-11T16:09:48;34.00;39.80
39189;DHT22;24915;50.858;4.376;2022-08-11T16:12:22;33.80;39.70
39189;DHT22;24915;50.858;4.376;2022-08-11T16:14:55;33.60;40.50
39189;DHT22;24915;50.858;4.376;2022-08-11T16:17:45;33.50;40.00
39189;DHT22;24915;50.858;4.376;2022-08-11T16:20:12;33.40;39.50
39189;DHT22;24915;50.858;4.376;2022-08-11T16:22:39;33.20;40.20
39189;DHT22;24915;50.858;4.376;2022-08-11T16:25:14;33.10;39.90
39189;DHT22;24915;50.858;4.376;2022-08-11T16:27:44;32.90;40.30
39189;DHT22;24915;50.858;4.376;2022-08-11T16:30:11;32.80;39.80
39189;DHT22;24915;50.858;4.376;2022-08-11T16:32:43;32.70;40.30
39189;DHT22;24915;50.858;4.376;2022-08-11T16:35:14;32.60;40.00
39189;DHT22;24915;50.858;4.376;2022-08-11T16:37:58;32.50;40.40
39189;DHT22;24915;50.858;4.376;2022-08-11T16:40:44;32.40;40.40
39189;DHT22;24915;50.858;4.376;2022-08-11T16:43:14;32.40;40.70
39189;DHT22;24915;50.858;4.376;2022-08-11T16:46:02;32.40;40.60
39189;DHT22;24915;50.858;4.376;2022-08-11T16:48:47;32.30;40.60
39189;DHT22;24915;50.858;4.376;2022-08-11T16:51:14;32.20;40.80
39189;DHT22;24915;50.858;4.376;2022-08-11T16:53:42;32.20;40.30
39189;DHT22;24915;50.858;4.376;2022-08-11T16:56:11;32.10;40.30
39189;DHT22;24915;50.858;4.376;2022-08-11T16:58:42;32.00;40.20
39189;DHT22;24915;50.858;4.376;2022-08-11T17:01:27;32.00;40.20
39189;DHT22;24915;50.858;4.376;2022-08-11T17:03:59;31.90;41.10
39189;DHT22;24915;50.858;4.376;2022-08-11T17:06:46;31.80;40.50
39189;DHT22;24915;50.858;4.376;2022-08-11T17:09:33;31.80;40.40
39189;DHT22;24915;50.858;4.376;2022-08-11T17:12:21;31.70;40.60
39189;DHT22;24915;50.858;4.376;2022-08-11T17:15:11;31.60;41.60
39189;DHT22;24915;50.858;4.376;2022-08-11T17:17:58;31.60;41.20
39189;DHT22;24915;50.858;4.376;2022-08-11T17:20:26;31.60;40.80
39189;DHT22;24915;50.858;4.376;2022-08-11T17:22:53;31.50;40.80
39189;DHT22;24915;50.858;4.376;2022-08-11T17:25:38;31.40;40.90
39189;DHT22;24915;50.858;4.376;2022-08-11T17:28:05;31.40;41.40
39189;DHT22;24915;50.858;4.376;2022-08-11T17:30:32;31.30;41.20
39189;DHT22;24915;50.858;4.376;2022-08-11T17:33:17;31.20;41.70
39189;DHT22;24915;50.858;4.376;2022-08-11T17:36:03;31.20;42.00
39189;DHT22;24915;50.858;4.376;2022-08-11T17:38:30;31.10;41.50
39189;DHT22;24915;50.858;4.376;2022-08-11T17:41:00;31.10;41.70
39189;DHT22;24915;50.858;4.376;2022-08-11T17:43:47;31.00;42.10
39189;DHT22;24915;50.858;4.376;2022-08-11T17:46:33;31.00;42.40
39189;DHT22;24915;50.858;4.376;2022-08-11T17:49:19;30.90;42.20
39189;DHT22;24915;50.858;4.376;2022-08-11T17:51:47;30.90;43.00
39189;DHT22;24915;50.858;4.376;2022-08-11T17:54:34;30.90;42.80
39189;DHT22;24915;50.858;4.376;2022-08-11T17:57:20;30.80;42.80
39189;DHT22;24915;50.858;4.376;2022-08-11T18:00:05;30.70;42.90
39189;DHT22;24915;50.858;4.376;2022-08-11T18:02:42;30.70;43.00
39189;DHT22;24915;50.858;4.376;2022-08-11T18:05:30;30.60;43.20
39189;DHT22;24915;50.858;4.376;2022-08-11T18:07:58;30.60;43.40
39189;DHT22;24915;50.858;4.376;2022-08-11T18:10:43;30.50;43.50
39189;DHT22;24915;50.858;4.376;2022-08-11T18:13:34;30.50;43.60
39189;DHT22;24915;50.858;4.376;2022-08-11T18:16:19;30.40;43.90
39189;DHT22;24915;50.858;4.376;2022-08-11T18:19:06;30.40;44.00
39189;DHT22;24915;50.858;4.376;2022-08-11T18:21:54;30.30;44.10
39189;DHT22;24915;50.858;4.376;2022-08-11T18:24:44;30.30;44.40
39189;DHT22;24915;50.858;4.376;2022-08-11T18:27:30;30.20;44.70
39189;DHT22;24915;50.858;4.376;2022-08-11T18:30:16;30.20;44.70
39189;DHT22;24915;50.858;4.376;2022-08-11T18:33:02;30.10;45.00
39189;DHT22;24915;50.858;4.376;2022-08-11T18:35:58;30.10;44.80
39189;DHT22;24915;50.858;4.376;2022-08-11T18:38:45;30.00;45.20
39189;DHT22;24915;50.858;4.376;2022-08-11T18:41:34;29.90;45.40
39189;DHT22;24915;50.858;4.376;2022-08-11T18:44:21;29.90;45.60
39189;DHT22;24915;50.858;4.376;2022-08-11T18:47:10;29.80;46.10
39189;DHT22;24915;50.858;4.376;2022-08-11T18:49:57;29.70;46.10
39189;DHT22;24915;50.858;4.376;2022-08-11T18:52:44;29.70;46.30
39189;DHT22;24915;50.858;4.376;2022-08-11T18:55:31;29.60;46.30
39189;DHT22;24915;50.858;4.376;2022-08-11T18:58:22;29.50;46.60
39189;DHT22;24915;50.858;4.376;2022-08-11T19:01:12;29.50;46.90
39189;DHT22;24915;50.858;4.376;2022-08-11T19:03:57;29.40;47.10
39189;DHT22;24915;50.858;4.376;2022-08-11T19:06:45;29.30;47.30
39189;DHT22;24915;50.858;4.376;2022-08-11T19:09:30;29.30;47.80
39189;DHT22;24915;50.858;4.376;2022-08-11T19:12:16;29.20;47.90
39189;DHT22;24915;50.858;4.376;2022-08-11T19:15:02;29.10;48.50
39189;DHT22;24915;50.858;4.376;2022-08-11T19:17:49;29.10;48.60
39189;DHT22;24915;50.858;4.376;2022-08-11T19:20:34;29.00;49.00
39189;DHT22;24915;50.858;4.376;2022-08-11T19:23:26;29.00;49.20
39189;DHT22;24915;50.858;4.376;2022-08-11T19:26:13;28.90;49.10
39189;DHT22;24915;50.858;4.376;2022-08-11T19:28:58;28.80;49.40
39189;DHT22;24915;50.858;4.376;2022-08-11T19:31:44;28.80;49.70
39189;DHT22;24915;50.858;4.376;2022-08-11T19:34:29;28.70;49.80
39189;DHT22;24915;50.858;4.376;2022-08-11T19:37:14;28.70;50.10
39189;DHT22;24915;50.858;4.376;2022-08-11T19:40:04;28.60;50.20
39189;DHT22;24915;50.858;4.376;2022-08-11T19:42:50;28.50;50.40
39189;DHT22;24915;50.858;4.376;2022-08-11T19:45:35;28.50;50.60
39189;DHT22;24915;50.858;4.376;2022-08-11T19:48:21;28.40;50.50
39189;DHT22;24915;50.858;4.376;2022-08-11T19:51:07;28.40;50.80
39189;DHT22;24915;50.858;4.376;2022-08-11T19:53:51;28.30;50.80
39189;DHT22;24915;50.858;4.376;2022-08-11T19:56:36;28.30;51.00
39189;DHT22;24915;50.858;4.376;2022-08-11T19:59:21;28.20;51.20